sensor_id;sensor_type;location;lat;lon;timestamp;P1;durP1;ratioP1;P2;durP2;ratioP2
11328;SDS011;5719;42.714;23.732;2022-08-18T00:00:08;10.82;;;7.30;;
11328;SDS011;5719;42.714;23.732;2022-08-18T00:02:38;9.13;;;6.68;;
11328;SDS011;5719;42.714;23.732;2022-08-18T00:05:07;11.07;;;6.60;;
11328;SDS011;5719;42.714;23.732;2022-08-18T00:07:34;10.55;;;6.22;;
11328;SDS011;5719;42.714;23.732;2022-08-18T00:10:02;9.15;;;6.32;;
11328;SDS011;5719;42.714;23.732;2022-08-18T00:12:31;7.90;;;6.47;;
11328;SDS011;5719;42.714;23.732;2022-08-18T00:15:06;9.60;;;6.38;;
11328;SDS011;5719;42.714;23.732;2022-08-18T00:17:35;14.68;;;6.40;;
11328;SDS011;5719;42.714;23.732;2022-08-18T00:20:03;7.50;;;5.93;;
11328;SDS011;5719;42.714;23.732;2022-08-18T00:22:34;9.88;;;6.45;;
11328;SDS011;5719;42.714;23.732;2022-08-18T00:25:01;7.70;;;6.60;;
11328;SDS011;5719;42.714;23.732;2022-08-18T00:27:29;7.95;;;6.45;;
11328;SDS011;5719;42.714;23.732;2022-08-18T00:29:58;11.48;;;6.78;;
11328;SDS011;5719;42.714;23.732;2022-08-18T00:32:29;12.25;;;6.70;;
11328;SDS011;5719;42.714;23.732;2022-08-18T00:35:03;13.65;;;6.53;;
11328;SDS011;5719;42.714;23.732;2022-08-18T00:37:32;10.48;;;6.30;;
11328;SDS011;5719;42.714;23.732;2022-08-18T00:39:59;6.55;;;5.85;;
11328;SDS011;5719;42.714;23.732;2022-08-18T00:42:27;8.88;;;5.68;;
11328;SDS011;5719;42.714;23.732;2022-08-18T00:44:56;8.93;;;6.57;;
11328;SDS011;5719;42.714;23.732;2022-08-18T00:47:25;6.78;;;5.82;;
11328;SDS011;5719;42.714;23.732;2022-08-18T00:49:54;14.23;;;5.93;;
11328;SDS011;5719;42.714;23.732;2022-08-18T00:52:22;12.10;;;6.72;;
11328;SDS011;5719;42.714;23.732;2022-08-18T00:54:51;11.35;;;5.85;;
11328;SDS011;5719;42.714;23.732;2022-08-18T00:57:19;10.55;;;6.53;;
11328;SDS011;5719;42.714;23.732;2022-08-18T00:59:50;9.18;;;6.50;;
11328;SDS011;5719;42.714;23.732;2022-08-18T01:02:24;8.98;;;6.38;;
11328;SDS011;5719;42.714;23.732;2022-08-18T01:04:57;8.98;;;6.13;;
11328;SDS011;5719;42.714;23.732;2022-08-18T01:09:59;10.32;;;6.75;;
11328;SDS011;5719;42.714;23.732;2022-08-18T01:12:28;8.25;;;6.35;;
11328;SDS011;5719;42.714;23.732;2022-08-18T01:14:55;10.52;;;6.43;;
11328;SDS011;5719;42.714;23.732;2022-08-18T01:17:22;10.88;;;6.22;;
11328;SDS011;5719;42.714;23.732;2022-08-18T01:20:09;10.98;;;6.15;;
11328;SDS011;5719;42.714;23.732;2022-08-18T01:22:58;11.95;;;6.40;;
11328;SDS011;5719;42.714;23.732;2022-08-18T01:25:30;9.48;;;6.50;;
11328;SDS011;5719;42.714;23.732;2022-08-18T01:28:15;10.48;;;6.70;;
11328;SDS011;5719;42.714;23.732;2022-08-18T01:30:45;6.47;;;5.82;;
11328;SDS011;5719;42.714;23.732;2022-08-18T01:33:14;10.38;;;6.55;;
11328;SDS011;5719;42.714;23.732;2022-08-18T01:35:42;11.25;;;6.90;;
11328;SDS011;5719;42.714;23.732;2022-08-18T01:38:15;11.77;;;6.60;;
11328;SDS011;5719;42.714;23.732;2022-08-18T01:40:43;14.20;;;6.88;;
11328;SDS011;5719;42.714;23.732;2022-08-18T01:43:11;9.82;;;6.50;;
11328;SDS011;5719;42.714;23.732;2022-08-18T01:45:39;8.95;;;6.75;;
11328;SDS011;5719;42.714;23.732;2022-08-18T01:48:07;8.70;;;5.93;;
11328;SDS011;5719;42.714;23.732;2022-08-18T01:50:34;8.98;;;6.20;;
11328;SDS011;5719;42.714;23.732;2022-08-18T01:53:04;17.15;;;6.68;;
11328;SDS011;5719;42.714;23.732;2022-08-18T01:55:34;7.15;;;6.07;;
11328;SDS011;5719;42.714;23.732;2022-08-18T01:58:02;7.75;;;6.50;;
11328;SDS011;5719;42.714;23.732;2022-08-18T02:00:29;11.23;;;6.60;;
11328;SDS011;5719;42.714;23.732;2022-08-18T02:02:57;19.13;;;7.03;;
11328;SDS011;5719;42.714;23.732;2022-08-18T02:05:26;7.72;;;6.47;;
11328;SDS011;5719;42.714;23.732;2022-08-18T02:07:57;11.00;;;6.87;;
11328;SDS011;5719;42.714;23.732;2022-08-18T02:10:24;8.75;;;6.68;;
11328;SDS011;5719;42.714;23.732;2022-08-18T02:12:53;9.88;;;6.70;;
11328;SDS011;5719;42.714;23.732;2022-08-18T02:15:19;12.50;;;6.72;;
11328;SDS011;5719;42.714;23.732;2022-08-18T02:17:46;8.27;;;6.22;;
11328;SDS011;5719;42.714;23.732;2022-08-18T02:20:15;14.43;;;8.13;;
11328;SDS011;5719;42.714;23.732;2022-08-18T02:22:44;9.50;;;6.45;;
11328;SDS011;5719;42.714;23.732;2022-08-18T02:25:12;9.18;;;6.25;;
11328;SDS011;5719;42.714;23.732;2022-08-18T02:27:40;7.45;;;6.32;;
11328;SDS011;5719;42.714;23.732;2022-08-18T02:30:09;7.63;;;6.13;;
11328;SDS011;5719;42.714;23.732;2022-08-18T02:32:39;15.60;;;7.25;;
11328;SDS011;5719;42.714;23.732;2022-08-18T02:35:06;10.30;;;6.90;;
11328;SDS011;5719;42.714;23.732;2022-08-18T02:37:35;8.55;;;6.60;;
11328;SDS011;5719;42.714;23.732;2022-08-18T02:40:02;8.43;;;5.97;;
11328;SDS011;5719;42.714;23.732;2022-08-18T02:42:30;9.32;;;6.28;;
11328;SDS011;5719;42.714;23.732;2022-08-18T02:44:57;9.55;;;6.20;;
11328;SDS011;5719;42.714;23.732;2022-08-18T02:47:25;10.27;;;6.28;;
11328;SDS011;5719;42.714;23.732;2022-08-18T02:49:52;11.02;;;7.15;;
11328;SDS011;5719;42.714;23.732;2022-08-18T02:52:18;18.88;;;7.43;;
11328;SDS011;5719;42.714;23.732;2022-08-18T02:54:45;10.00;;;6.85;;
11328;SDS011;5719;42.714;23.732;2022-08-18T02:57:12;12.02;;;7.00;;
11328;SDS011;5719;42.714;23.732;2022-08-18T02:59:39;11.75;;;7.53;;
11328;SDS011;5719;42.714;23.732;2022-08-18T03:02:07;12.77;;;7.05;;
11328;SDS011;5719;42.714;23.732;2022-08-18T03:04:36;10.15;;;6.43;;
11328;SDS011;5719;42.714;23.732;2022-08-18T03:07:04;11.55;;;6.45;;
11328;SDS011;5719;42.714;23.732;2022-08-18T03:09:33;7.50;;;6.88;;
11328;SDS011;5719;42.714;23.732;2022-08-18T03:12:00;14.50;;;7.55;;
11328;SDS011;5719;42.714;23.732;2022-08-18T03:14:28;11.70;;;6.80;;
11328;SDS011;5719;42.714;23.732;2022-08-18T03:16:55;10.32;;;6.95;;
11328;SDS011;5719;42.714;23.732;2022-08-18T03:19:23;9.60;;;6.15;;
11328;SDS011;5719;42.714;23.732;2022-08-18T03:21:53;8.52;;;6.68;;
11328;SDS011;5719;42.714;23.732;2022-08-18T03:24:23;9.63;;;6.55;;
11328;SDS011;5719;42.714;23.732;2022-08-18T03:26:51;12.43;;;7.05;;
11328;SDS011;5719;42.714;23.732;2022-08-18T03:29:20;12.32;;;7.03;;
11328;SDS011;5719;42.714;23.732;2022-08-18T03:31:47;7.82;;;6.70;;
11328;SDS011;5719;42.714;23.732;2022-08-18T03:34:14;10.23;;;6.30;;
11328;SDS011;5719;42.714;23.732;2022-08-18T03:36:43;9.52;;;7.03;;
11328;SDS011;5719;42.714;23.732;2022-08-18T03:39:12;9.63;;;6.63;;
11328;SDS011;5719;42.714;23.732;2022-08-18T03:41:40;9.02;;;6.68;;
11328;SDS011;5719;42.714;23.732;2022-08-18T03:44:08;7.55;;;6.72;;
11328;SDS011;5719;42.714;23.732;2022-08-18T03:46:35;12.98;;;6.55;;
11328;SDS011;5719;42.714;23.732;2022-08-18T03:49:02;11.55;;;6.28;;
11328;SDS011;5719;42.714;23.732;2022-08-18T03:51:30;8.50;;;5.75;;
11328;SDS011;5719;42.714;23.732;2022-08-18T03:53:59;9.45;;;5.93;;
11328;SDS011;5719;42.714;23.732;2022-08-18T03:56:30;7.95;;;5.97;;
11328;SDS011;5719;42.714;23.732;2022-08-18T03:58:59;16.77;;;7.03;;
11328;SDS011;5719;42.714;23.732;2022-08-18T04:01:30;9.80;;;6.80;;
11328;SDS011;5719;42.714;23.732;2022-08-18T04:03:58;13.48;;;6.50;;
11328;SDS011;5719;42.714;23.732;2022-08-18T04:06:28;11.32;;;6.65;;
11328;SDS011;5719;42.714;23.732;2022-08-18T04:08:58;11.65;;;6.20;;
11328;SDS011;5719;42.714;23.732;2022-08-18T04:11:26;10.30;;;6.57;;
11328;SDS011;5719;42.714;23.732;2022-08-18T04:13:55;8.82;;;6.70;;
11328;SDS011;5719;42.714;23.732;2022-08-18T04:16:23;7.63;;;6.78;;
11328;SDS011;5719;42.714;23.732;2022-08-18T04:18:49;7.78;;;6.97;;
11328;SDS011;5719;42.714;23.732;2022-08-18T04:21:16;10.48;;;6.80;;
11328;SDS011;5719;42.714;23.732;2022-08-18T04:23:44;9.48;;;6.70;;
11328;SDS011;5719;42.714;23.732;2022-08-18T04:26:11;10.68;;;7.60;;
11328;SDS011;5719;42.714;23.732;2022-08-18T04:28:38;8.60;;;7.03;;
11328;SDS011;5719;42.714;23.732;2022-08-18T04:31:08;10.43;;;7.10;;
11328;SDS011;5719;42.714;23.732;2022-08-18T04:33:38;16.17;;;7.22;;
11328;SDS011;5719;42.714;23.732;2022-08-18T04:36:06;12.52;;;7.65;;
11328;SDS011;5719;42.714;23.732;2022-08-18T04:38:35;11.95;;;8.07;;
11328;SDS011;5719;42.714;23.732;2022-08-18T04:41:02;10.57;;;8.50;;
11328;SDS011;5719;42.714;23.732;2022-08-18T04:43:29;14.80;;;9.43;;
11328;SDS011;5719;42.714;23.732;2022-08-18T04:45:57;14.45;;;7.88;;
11328;SDS011;5719;42.714;23.732;2022-08-18T04:48:28;15.52;;;9.02;;
11328;SDS011;5719;42.714;23.732;2022-08-18T04:51:02;12.05;;;8.07;;
11328;SDS011;5719;42.714;23.732;2022-08-18T04:53:31;10.15;;;8.00;;
11328;SDS011;5719;42.714;23.732;2022-08-18T04:56:15;10.85;;;8.32;;
11328;SDS011;5719;42.714;23.732;2022-08-18T04:58:50;14.23;;;8.45;;
11328;SDS011;5719;42.714;23.732;2022-08-18T05:01:18;9.82;;;8.05;;
11328;SDS011;5719;42.714;23.732;2022-08-18T05:03:48;15.75;;;8.68;;
11328;SDS011;5719;42.714;23.732;2022-08-18T05:06:16;13.68;;;8.45;;
11328;SDS011;5719;42.714;23.732;2022-08-18T05:08:44;10.82;;;7.68;;
11328;SDS011;5719;42.714;23.732;2022-08-18T05:11:12;10.07;;;8.50;;
11328;SDS011;5719;42.714;23.732;2022-08-18T05:13:39;10.32;;;8.25;;
11328;SDS011;5719;42.714;23.732;2022-08-18T05:16:07;10.60;;;8.13;;
11328;SDS011;5719;42.714;23.732;2022-08-18T05:18:34;13.52;;;8.55;;
11328;SDS011;5719;42.714;23.732;2022-08-18T05:21:06;11.02;;;9.10;;
11328;SDS011;5719;42.714;23.732;2022-08-18T05:23:38;9.35;;;7.97;;
11328;SDS011;5719;42.714;23.732;2022-08-18T05:26:05;9.93;;;7.65;;
11328;SDS011;5719;42.714;23.732;2022-08-18T05:28:32;11.80;;;7.35;;
11328;SDS011;5719;42.714;23.732;2022-08-18T05:31:05;7.90;;;7.20;;
11328;SDS011;5719;42.714;23.732;2022-08-18T05:33:33;8.85;;;6.90;;
11328;SDS011;5719;42.714;23.732;2022-08-18T05:36:01;11.52;;;7.38;;
11328;SDS011;5719;42.714;23.732;2022-08-18T05:38:35;17.10;;;7.10;;
11328;SDS011;5719;42.714;23.732;2022-08-18T05:41:09;8.23;;;7.40;;
11328;SDS011;5719;42.714;23.732;2022-08-18T05:43:37;8.95;;;6.72;;
11328;SDS011;5719;42.714;23.732;2022-08-18T05:46:05;11.90;;;6.95;;
11328;SDS011;5719;42.714;23.732;2022-08-18T05:48:35;9.55;;;6.90;;
11328;SDS011;5719;42.714;23.732;2022-08-18T05:51:04;9.18;;;6.45;;
11328;SDS011;5719;42.714;23.732;2022-08-18T05:53:39;9.23;;;6.30;;
11328;SDS011;5719;42.714;23.732;2022-08-18T05:56:25;11.00;;;6.53;;
11328;SDS011;5719;42.714;23.732;2022-08-18T05:59:13;12.30;;;6.40;;
11328;SDS011;5719;42.714;23.732;2022-08-18T06:01:46;7.67;;;5.97;;
11328;SDS011;5719;42.714;23.732;2022-08-18T06:04:21;6.40;;;5.78;;
11328;SDS011;5719;42.714;23.732;2022-08-18T06:06:53;10.82;;;6.43;;
11328;SDS011;5719;42.714;23.732;2022-08-18T06:09:25;8.20;;;6.10;;
11328;SDS011;5719;42.714;23.732;2022-08-18T06:12:02;8.15;;;5.40;;
11328;SDS011;5719;42.714;23.732;2022-08-18T06:14:35;12.52;;;5.65;;
11328;SDS011;5719;42.714;23.732;2022-08-18T06:17:06;10.25;;;5.10;;
11328;SDS011;5719;42.714;23.732;2022-08-18T06:19:41;10.65;;;5.30;;
11328;SDS011;5719;42.714;23.732;2022-08-18T06:22:16;7.45;;;5.00;;
11328;SDS011;5719;42.714;23.732;2022-08-18T06:24:57;6.60;;;5.95;;
11328;SDS011;5719;42.714;23.732;2022-08-18T06:27:35;8.98;;;5.25;;
11328;SDS011;5719;42.714;23.732;2022-08-18T06:30:07;8.57;;;5.10;;
11328;SDS011;5719;42.714;23.732;2022-08-18T06:32:51;9.52;;;5.38;;
11328;SDS011;5719;42.714;23.732;2022-08-18T06:35:32;6.07;;;5.45;;
11328;SDS011;5719;42.714;23.732;2022-08-18T06:38:06;7.72;;;5.63;;
11328;SDS011;5719;42.714;23.732;2022-08-18T06:41:03;10.73;;;5.72;;
11328;SDS011;5719;42.714;23.732;2022-08-18T06:43:37;8.32;;;5.00;;
11328;SDS011;5719;42.714;23.732;2022-08-18T06:46:11;11.07;;;5.45;;
11328;SDS011;5719;42.714;23.732;2022-08-18T06:48:45;10.48;;;4.95;;
11328;SDS011;5719;42.714;23.732;2022-08-18T06:51:19;9.15;;;5.97;;
11328;SDS011;5719;42.714;23.732;2022-08-18T06:53:51;9.60;;;5.05;;
11328;SDS011;5719;42.714;23.732;2022-08-18T06:56:24;9.40;;;6.40;;
11328;SDS011;5719;42.714;23.732;2022-08-18T06:58:53;8.75;;;5.88;;
11328;SDS011;5719;42.714;23.732;2022-08-18T07:01:38;11.57;;;5.72;;
11328;SDS011;5719;42.714;23.732;2022-08-18T07:04:05;9.60;;;6.40;;
11328;SDS011;5719;42.714;23.732;2022-08-18T07:06:32;14.20;;;5.95;;
11328;SDS011;5719;42.714;23.732;2022-08-18T07:09:19;7.20;;;5.40;;
11328;SDS011;5719;42.714;23.732;2022-08-18T07:12:00;11.40;;;5.25;;
11328;SDS011;5719;42.714;23.732;2022-08-18T07:14:30;5.80;;;5.20;;
11328;SDS011;5719;42.714;23.732;2022-08-18T07:17:08;6.82;;;5.28;;
11328;SDS011;5719;42.714;23.732;2022-08-18T07:19:36;8.27;;;5.55;;
11328;SDS011;5719;42.714;23.732;2022-08-18T07:22:04;13.50;;;5.18;;
11328;SDS011;5719;42.714;23.732;2022-08-18T07:24:33;10.02;;;5.65;;
11328;SDS011;5719;42.714;23.732;2022-08-18T07:27:06;7.97;;;4.90;;
11328;SDS011;5719;42.714;23.732;2022-08-18T07:29:36;7.13;;;4.63;;
11328;SDS011;5719;42.714;23.732;2022-08-18T07:32:06;13.32;;;4.95;;
11328;SDS011;5719;42.714;23.732;2022-08-18T07:34:40;11.55;;;4.60;;
11328;SDS011;5719;42.714;23.732;2022-08-18T07:37:15;8.73;;;4.45;;
11328;SDS011;5719;42.714;23.732;2022-08-18T07:39:45;7.53;;;4.20;;
11328;SDS011;5719;42.714;23.732;2022-08-18T07:42:20;9.75;;;4.68;;
11328;SDS011;5719;42.714;23.732;2022-08-18T07:44:58;7.65;;;4.45;;
11328;SDS011;5719;42.714;23.732;2022-08-18T07:47:31;7.30;;;4.80;;
11328;SDS011;5719;42.714;23.732;2022-08-18T07:50:05;8.77;;;4.70;;
11328;SDS011;5719;42.714;23.732;2022-08-18T07:52:36;6.75;;;4.55;;
11328;SDS011;5719;42.714;23.732;2022-08-18T07:55:09;6.40;;;4.60;;
11328;SDS011;5719;42.714;23.732;2022-08-18T07:57:59;10.48;;;4.68;;
11328;SDS011;5719;42.714;23.732;2022-08-18T08:00:49;12.15;;;4.50;;
11328;SDS011;5719;42.714;23.732;2022-08-18T08:03:24;12.07;;;4.53;;
11328;SDS011;5719;42.714;23.732;2022-08-18T08:05:59;10.02;;;4.85;;
11328;SDS011;5719;42.714;23.732;2022-08-18T08:08:34;9.15;;;3.92;;
11328;SDS011;5719;42.714;23.732;2022-08-18T08:11:11;10.68;;;4.70;;
11328;SDS011;5719;42.714;23.732;2022-08-18T08:13:58;9.48;;;4.45;;
11328;SDS011;5719;42.714;23.732;2022-08-18T08:16:36;9.05;;;4.60;;
11328;SDS011;5719;42.714;23.732;2022-08-18T08:19:23;10.40;;;4.65;;
11328;SDS011;5719;42.714;23.732;2022-08-18T08:22:11;10.95;;;4.55;;
11328;SDS011;5719;42.714;23.732;2022-08-18T08:24:45;9.00;;;4.40;;
11328;SDS011;5719;42.714;23.732;2022-08-18T08:27:23;9.32;;;4.22;;
11328;SDS011;5719;42.714;23.732;2022-08-18T08:30:04;5.28;;;3.97;;
11328;SDS011;5719;42.714;23.732;2022-08-18T08:35:05;5.72;;;4.47;;
11328;SDS011;5719;42.714;23.732;2022-08-18T08:37:37;7.03;;;4.10;;
11328;SDS011;5719;42.714;23.732;2022-08-18T08:40:12;5.95;;;4.13;;
11328;SDS011;5719;42.714;23.732;2022-08-18T08:42:44;18.70;;;4.40;;
11328;SDS011;5719;42.714;23.732;2022-08-18T08:45:19;10.10;;;4.15;;
11328;SDS011;5719;42.714;23.732;2022-08-18T08:50:23;10.82;;;4.03;;
11328;SDS011;5719;42.714;23.732;2022-08-18T08:52:53;7.13;;;4.07;;
11328;SDS011;5719;42.714;23.732;2022-08-18T08:55:25;7.20;;;4.35;;
11328;SDS011;5719;42.714;23.732;2022-08-18T08:57:57;9.48;;;4.03;;
11328;SDS011;5719;42.714;23.732;2022-08-18T09:00:36;10.93;;;4.38;;
11328;SDS011;5719;42.714;23.732;2022-08-18T09:03:07;6.78;;;3.80;;
11328;SDS011;5719;42.714;23.732;2022-08-18T09:05:46;9.98;;;4.00;;
11328;SDS011;5719;42.714;23.732;2022-08-18T09:08:34;6.18;;;3.97;;
11328;SDS011;5719;42.714;23.732;2022-08-18T09:11:33;8.73;;;3.60;;
11328;SDS011;5719;42.714;23.732;2022-08-18T09:14:31;7.40;;;3.70;;
11328;SDS011;5719;42.714;23.732;2022-08-18T09:17:38;7.60;;;3.77;;
11328;SDS011;5719;42.714;23.732;2022-08-18T09:20:28;7.38;;;3.70;;
11328;SDS011;5719;42.714;23.732;2022-08-18T09:23:17;5.60;;;4.03;;
11328;SDS011;5719;42.714;23.732;2022-08-18T09:25:47;12.02;;;4.07;;
11328;SDS011;5719;42.714;23.732;2022-08-18T09:28:17;7.22;;;3.25;;
11328;SDS011;5719;42.714;23.732;2022-08-18T09:30:50;7.75;;;3.92;;
11328;SDS011;5719;42.714;23.732;2022-08-18T09:33:43;5.20;;;3.60;;
11328;SDS011;5719;42.714;23.732;2022-08-18T09:36:26;5.07;;;3.65;;
11328;SDS011;5719;42.714;23.732;2022-08-18T09:39:13;4.57;;;3.50;;
11328;SDS011;5719;42.714;23.732;2022-08-18T09:42:06;5.03;;;3.33;;
11328;SDS011;5719;42.714;23.732;2022-08-18T09:44:56;7.78;;;3.40;;
11328;SDS011;5719;42.714;23.732;2022-08-18T09:50:57;7.45;;;3.55;;
11328;SDS011;5719;42.714;23.732;2022-08-18T10:05:54;4.57;;;3.17;;
11328;SDS011;5719;42.714;23.732;2022-08-18T10:11:41;5.45;;;3.58;;
11328;SDS011;5719;42.714;23.732;2022-08-18T10:14:36;5.70;;;3.30;;
11328;SDS011;5719;42.714;23.732;2022-08-18T10:17:20;4.82;;;3.10;;
11328;SDS011;5719;42.714;23.732;2022-08-18T10:20:15;7.05;;;3.20;;
11328;SDS011;5719;42.714;23.732;2022-08-18T10:22:56;8.27;;;3.60;;
11328;SDS011;5719;42.714;23.732;2022-08-18T10:25:30;3.22;;;2.83;;
11328;SDS011;5719;42.714;23.732;2022-08-18T10:27:59;5.95;;;3.10;;
11328;SDS011;5719;42.714;23.732;2022-08-18T10:30:43;3.33;;;3.00;;
11328;SDS011;5719;42.714;23.732;2022-08-18T10:36:35;9.32;;;3.00;;
11328;SDS011;5719;42.714;23.732;2022-08-18T10:39:09;4.25;;;2.83;;
11328;SDS011;5719;42.714;23.732;2022-08-18T10:41:46;4.00;;;2.90;;
11328;SDS011;5719;42.714;23.732;2022-08-18T10:44:29;3.35;;;3.08;;
11328;SDS011;5719;42.714;23.732;2022-08-18T10:46:59;3.53;;;3.08;;
11328;SDS011;5719;42.714;23.732;2022-08-18T10:49:29;7.88;;;3.28;;
11328;SDS011;5719;42.714;23.732;2022-08-18T10:52:07;4.38;;;3.13;;
11328;SDS011;5719;42.714;23.732;2022-08-18T10:57:57;3.55;;;2.85;;
11328;SDS011;5719;42.714;23.732;2022-08-18T11:00:37;12.20;;;3.30;;
11328;SDS011;5719;42.714;23.732;2022-08-18T11:03:12;4.38;;;2.95;;
11328;SDS011;5719;42.714;23.732;2022-08-18T11:05:59;6.43;;;3.20;;
11328;SDS011;5719;42.714;23.732;2022-08-18T11:08:27;4.07;;;3.13;;
11328;SDS011;5719;42.714;23.732;2022-08-18T11:11:04;4.35;;;2.90;;
11328;SDS011;5719;42.714;23.732;2022-08-18T11:13:36;4.00;;;3.20;;
11328;SDS011;5719;42.714;23.732;2022-08-18T11:16:16;8.57;;;3.45;;
11328;SDS011;5719;42.714;23.732;2022-08-18T11:18:54;4.80;;;2.90;;
11328;SDS011;5719;42.714;23.732;2022-08-18T11:21:31;4.07;;;2.97;;
11328;SDS011;5719;42.714;23.732;2022-08-18T11:24:04;5.05;;;2.63;;
11328;SDS011;5719;42.714;23.732;2022-08-18T11:26:36;4.22;;;2.63;;
11328;SDS011;5719;42.714;23.732;2022-08-18T11:29:18;3.17;;;2.75;;
11328;SDS011;5719;42.714;23.732;2022-08-18T11:31:52;7.05;;;3.00;;
11328;SDS011;5719;42.714;23.732;2022-08-18T11:34:24;5.50;;;2.83;;
11328;SDS011;5719;42.714;23.732;2022-08-18T11:36:56;3.80;;;3.10;;
11328;SDS011;5719;42.714;23.732;2022-08-18T11:39:26;5.68;;;2.80;;
11328;SDS011;5719;42.714;23.732;2022-08-18T11:41:55;6.13;;;2.92;;
11328;SDS011;5719;42.714;23.732;2022-08-18T11:44:24;9.30;;;3.15;;
11328;SDS011;5719;42.714;23.732;2022-08-18T11:49:34;4.47;;;3.03;;
11328;SDS011;5719;42.714;23.732;2022-08-18T11:52:13;3.00;;;2.80;;
11328;SDS011;5719;42.714;23.732;2022-08-18T11:54:44;3.45;;;2.85;;
11328;SDS011;5719;42.714;23.732;2022-08-18T11:57:36;3.10;;;2.72;;
11328;SDS011;5719;42.714;23.732;2022-08-18T12:03:02;3.95;;;3.08;;
11328;SDS011;5719;42.714;23.732;2022-08-18T12:05:39;3.55;;;2.65;;
11328;SDS011;5719;42.714;23.732;2022-08-18T12:08:15;5.00;;;2.88;;
11328;SDS011;5719;42.714;23.732;2022-08-18T12:10:44;4.95;;;3.35;;
11328;SDS011;5719;42.714;23.732;2022-08-18T12:13:21;2.97;;;2.78;;
11328;SDS011;5719;42.714;23.732;2022-08-18T12:18:34;7.13;;;2.97;;
11328;SDS011;5719;42.714;23.732;2022-08-18T12:21:01;5.55;;;2.80;;
11328;SDS011;5719;42.714;23.732;2022-08-18T12:23:28;4.50;;;2.65;;
11328;SDS011;5719;42.714;23.732;2022-08-18T12:25:56;5.05;;;2.53;;
11328;SDS011;5719;42.714;23.732;2022-08-18T12:28:24;7.15;;;2.90;;
11328;SDS011;5719;42.714;23.732;2022-08-18T12:30:51;4.72;;;2.70;;
11328;SDS011;5719;42.714;23.732;2022-08-18T12:33:18;3.88;;;2.80;;
11328;SDS011;5719;42.714;23.732;2022-08-18T12:35:45;6.28;;;3.38;;
11328;SDS011;5719;42.714;23.732;2022-08-18T12:38:13;4.93;;;2.67;;
11328;SDS011;5719;42.714;23.732;2022-08-18T12:40:41;4.90;;;3.10;;
11328;SDS011;5719;42.714;23.732;2022-08-18T12:43:09;4.97;;;2.67;;
11328;SDS011;5719;42.714;23.732;2022-08-18T12:45:38;2.97;;;2.50;;
11328;SDS011;5719;42.714;23.732;2022-08-18T12:48:05;5.75;;;2.67;;
11328;SDS011;5719;42.714;23.732;2022-08-18T12:50:33;2.97;;;2.47;;
11328;SDS011;5719;42.714;23.732;2022-08-18T12:53:01;2.80;;;2.60;;
11328;SDS011;5719;42.714;23.732;2022-08-18T12:55:29;3.65;;;2.40;;
11328;SDS011;5719;42.714;23.732;2022-08-18T12:57:59;2.95;;;2.45;;
11328;SDS011;5719;42.714;23.732;2022-08-18T13:00:28;3.08;;;2.50;;
11328;SDS011;5719;42.714;23.732;2022-08-18T13:02:56;3.40;;;2.33;;
11328;SDS011;5719;42.714;23.732;2022-08-18T13:05:24;6.13;;;2.45;;
11328;SDS011;5719;42.714;23.732;2022-08-18T13:07:51;3.67;;;2.53;;
11328;SDS011;5719;42.714;23.732;2022-08-18T13:10:18;2.90;;;2.70;;
11328;SDS011;5719;42.714;23.732;2022-08-18T13:12:45;5.20;;;2.40;;
11328;SDS011;5719;42.714;23.732;2022-08-18T13:15:12;2.72;;;2.30;;
11328;SDS011;5719;42.714;23.732;2022-08-18T13:17:39;5.35;;;2.30;;
11328;SDS011;5719;42.714;23.732;2022-08-18T13:20:09;3.13;;;2.58;;
11328;SDS011;5719;42.714;23.732;2022-08-18T13:25:07;3.80;;;2.53;;
11328;SDS011;5719;42.714;23.732;2022-08-18T13:27:36;4.53;;;2.42;;
11328;SDS011;5719;42.714;23.732;2022-08-18T13:30:04;2.60;;;2.40;;
11328;SDS011;5719;42.714;23.732;2022-08-18T13:32:33;4.15;;;2.50;;
11328;SDS011;5719;42.714;23.732;2022-08-18T13:35:01;4.15;;;2.40;;
11328;SDS011;5719;42.714;23.732;2022-08-18T13:37:29;2.40;;;2.30;;
11328;SDS011;5719;42.714;23.732;2022-08-18T13:39:57;2.65;;;2.13;;
11328;SDS011;5719;42.714;23.732;2022-08-18T13:42:24;3.47;;;2.17;;
11328;SDS011;5719;42.714;23.732;2022-08-18T13:44:53;5.10;;;2.40;;
11328;SDS011;5719;42.714;23.732;2022-08-18T13:47:21;2.20;;;2.00;;
11328;SDS011;5719;42.714;23.732;2022-08-18T13:49:49;2.40;;;2.20;;
11328;SDS011;5719;42.714;23.732;2022-08-18T13:52:16;3.55;;;2.30;;
11328;SDS011;5719;42.714;23.732;2022-08-18T13:54:45;3.00;;;2.30;;
11328;SDS011;5719;42.714;23.732;2022-08-18T13:57:12;2.15;;;1.95;;
11328;SDS011;5719;42.714;23.732;2022-08-18T13:59:39;2.35;;;2.15;;
11328;SDS011;5719;42.714;23.732;2022-08-18T14:02:07;2.88;;;2.10;;
11328;SDS011;5719;42.714;23.732;2022-08-18T14:04:35;8.27;;;2.50;;
11328;SDS011;5719;42.714;23.732;2022-08-18T14:07:03;2.42;;;1.90;;
11328;SDS011;5719;42.714;23.732;2022-08-18T14:09:33;4.05;;;2.03;;
11328;SDS011;5719;42.714;23.732;2022-08-18T14:12:02;4.75;;;2.33;;
11328;SDS011;5719;42.714;23.732;2022-08-18T14:14:32;4.38;;;2.42;;
11328;SDS011;5719;42.714;23.732;2022-08-18T14:16:59;2.25;;;2.00;;
11328;SDS011;5719;42.714;23.732;2022-08-18T14:19:25;3.28;;;2.08;;
11328;SDS011;5719;42.714;23.732;2022-08-18T14:22:10;2.63;;;2.10;;
11328;SDS011;5719;42.714;23.732;2022-08-18T14:24:54;2.42;;;2.22;;
11328;SDS011;5719;42.714;23.732;2022-08-18T14:27:40;4.32;;;2.13;;
11328;SDS011;5719;42.714;23.732;2022-08-18T14:30:08;3.60;;;2.20;;
11328;SDS011;5719;42.714;23.732;2022-08-18T14:32:37;2.65;;;2.10;;
11328;SDS011;5719;42.714;23.732;2022-08-18T14:35:07;2.53;;;2.13;;
11328;SDS011;5719;42.714;23.732;2022-08-18T14:37:35;4.20;;;2.00;;
11328;SDS011;5719;42.714;23.732;2022-08-18T14:40:03;5.35;;;2.00;;
11328;SDS011;5719;42.714;23.732;2022-08-18T14:42:31;2.40;;;2.20;;
11328;SDS011;5719;42.714;23.732;2022-08-18T14:45:02;5.07;;;2.20;;
11328;SDS011;5719;42.714;23.732;2022-08-18T14:47:30;6.13;;;2.03;;
11328;SDS011;5719;42.714;23.732;2022-08-18T14:49:57;14.45;;;2.20;;
11328;SDS011;5719;42.714;23.732;2022-08-18T14:52:25;2.20;;;2.00;;
11328;SDS011;5719;42.714;23.732;2022-08-18T14:54:52;2.30;;;2.10;;
11328;SDS011;5719;42.714;23.732;2022-08-18T14:57:20;3.47;;;2.00;;
11328;SDS011;5719;42.714;23.732;2022-08-18T14:59:47;4.30;;;2.20;;
11328;SDS011;5719;42.714;23.732;2022-08-18T15:02:18;2.03;;;1.92;;
11328;SDS011;5719;42.714;23.732;2022-08-18T15:04:45;2.10;;;1.85;;
11328;SDS011;5719;42.714;23.732;2022-08-18T15:07:12;2.25;;;2.05;;
11328;SDS011;5719;42.714;23.732;2022-08-18T15:09:39;6.70;;;2.25;;
11328;SDS011;5719;42.714;23.732;2022-08-18T15:12:06;2.58;;;2.10;;
11328;SDS011;5719;42.714;23.732;2022-08-18T15:14:33;2.45;;;1.90;;
11328;SDS011;5719;42.714;23.732;2022-08-18T15:17:02;5.20;;;1.85;;
11328;SDS011;5719;42.714;23.732;2022-08-18T15:19:32;3.20;;;2.05;;
11328;SDS011;5719;42.714;23.732;2022-08-18T15:21:59;2.90;;;2.03;;
11328;SDS011;5719;42.714;23.732;2022-08-18T15:24:43;2.78;;;1.95;;
11328;SDS011;5719;42.714;23.732;2022-08-18T15:27:31;3.78;;;2.17;;
11328;SDS011;5719;42.714;23.732;2022-08-18T15:30:01;4.43;;;2.10;;
11328;SDS011;5719;42.714;23.732;2022-08-18T15:32:30;2.33;;;2.10;;
11328;SDS011;5719;42.714;23.732;2022-08-18T15:34:58;6.25;;;2.20;;
11328;SDS011;5719;42.714;23.732;2022-08-18T15:37:26;2.15;;;1.92;;
11328;SDS011;5719;42.714;23.732;2022-08-18T15:39:57;3.78;;;1.83;;
11328;SDS011;5719;42.714;23.732;2022-08-18T15:42:26;6.00;;;2.03;;
11328;SDS011;5719;42.714;23.732;2022-08-18T15:44:53;2.13;;;1.90;;
11328;SDS011;5719;42.714;23.732;2022-08-18T15:47:20;2.28;;;2.10;;
11328;SDS011;5719;42.714;23.732;2022-08-18T15:49:48;4.55;;;1.75;;
11328;SDS011;5719;42.714;23.732;2022-08-18T15:52:17;2.47;;;1.83;;
11328;SDS011;5719;42.714;23.732;2022-08-18T15:54:44;2.45;;;1.60;;